Jasper, Tennessee
Current Conditions -  °F | °C
As of 8:53 PM on Monday 22 Dec 2014 (Local Time) from KCHA Reporting Station
Light Rain Light Rain  
Wind Chill: 44°   Ceiling: 1400
Heat Index: 48°   Visibility: 4mi
Dew Point: 45°   Wind: 8mph
Humidity: 89%   Direction: 180°S
Pressure: 29.86"   Gusts: NA
Location:  35.07°N, 85.63°W
Report Text: KCHA 230253Z 18007KT 4SM -RA BR BKN014 OVC018 09/07 A2986 RMK AO2 RAB30 SLP111 P0001 60002 T00890072 53002
Loading
Personal Weather Stations






























Interactive Weather Map New forecast layout! Learn more

10-Day Weather Forecast

Advertisements
Track Severe Weather on mobile